sensor_id;sensor_type;location;lat;lon;timestamp;P1;durP1;ratioP1;P2;durP2;ratioP2
6209;SDS011;3138;52.550;13.148;2024-02-04T00:02:00;23.10;;;3.20;;
6209;SDS011;3138;52.550;13.148;2024-02-04T00:04:29;16.80;;;2.83;;
6209;SDS011;3138;52.550;13.148;2024-02-04T00:06:57;24.03;;;3.77;;
6209;SDS011;3138;52.550;13.148;2024-02-04T00:09:24;15.07;;;3.30;;
6209;SDS011;3138;52.550;13.148;2024-02-04T00:11:53;19.53;;;3.80;;
6209;SDS011;3138;52.550;13.148;2024-02-04T00:14:19;19.63;;;4.10;;
6209;SDS011;3138;52.550;13.148;2024-02-04T00:16:46;27.87;;;4.23;;
6209;SDS011;3138;52.550;13.148;2024-02-04T00:19:13;13.97;;;2.83;;
6209;SDS011;3138;52.550;13.148;2024-02-04T00:21:41;26.90;;;4.17;;
6209;SDS011;3138;52.550;13.148;2024-02-04T00:24:08;22.40;;;3.70;;
6209;SDS011;3138;52.550;13.148;2024-02-04T00:26:35;13.87;;;3.53;;
6209;SDS011;3138;52.550;13.148;2024-02-04T00:29:02;35.57;;;3.87;;
6209;SDS011;3138;52.550;13.148;2024-02-04T00:31:28;15.50;;;3.60;;
6209;SDS011;3138;52.550;13.148;2024-02-04T00:33:55;24.60;;;4.03;;
6209;SDS011;3138;52.550;13.148;2024-02-04T00:36:22;27.43;;;3.83;;
6209;SDS011;3138;52.550;13.148;2024-02-04T00:38:50;26.80;;;4.87;;
6209;SDS011;3138;52.550;13.148;2024-02-04T00:41:17;22.43;;;3.73;;
6209;SDS011;3138;52.550;13.148;2024-02-04T00:43:44;21.13;;;3.30;;
6209;SDS011;3138;52.550;13.148;2024-02-04T00:46:11;21.37;;;3.90;;
6209;SDS011;3138;52.550;13.148;2024-02-04T00:48:37;22.43;;;3.73;;
6209;SDS011;3138;52.550;13.148;2024-02-04T00:51:05;39.57;;;4.00;;
6209;SDS011;3138;52.550;13.148;2024-02-04T00:53:32;21.53;;;3.37;;
6209;SDS011;3138;52.550;13.148;2024-02-04T00:56:01;41.53;;;4.67;;
6209;SDS011;3138;52.550;13.148;2024-02-04T00:58:29;24.33;;;4.60;;
6209;SDS011;3138;52.550;13.148;2024-02-04T01:00:56;14.33;;;3.60;;
6209;SDS011;3138;52.550;13.148;2024-02-04T01:03:23;27.53;;;4.07;;
6209;SDS011;3138;52.550;13.148;2024-02-04T01:05:50;20.87;;;3.80;;
6209;SDS011;3138;52.550;13.148;2024-02-04T01:08:17;22.60;;;3.60;;
6209;SDS011;3138;52.550;13.148;2024-02-04T01:10:44;13.60;;;3.27;;
6209;SDS011;3138;52.550;13.148;2024-02-04T01:13:12;22.43;;;3.67;;
6209;SDS011;3138;52.550;13.148;2024-02-04T01:15:39;20.13;;;3.40;;
6209;SDS011;3138;52.550;13.148;2024-02-04T01:18:05;31.87;;;3.50;;
6209;SDS011;3138;52.550;13.148;2024-02-04T01:20:32;18.40;;;3.60;;
6209;SDS011;3138;52.550;13.148;2024-02-04T01:22:59;37.97;;;4.13;;
6209;SDS011;3138;52.550;13.148;2024-02-04T01:25:26;13.03;;;2.37;;
6209;SDS011;3138;52.550;13.148;2024-02-04T01:27:53;21.23;;;4.30;;
6209;SDS011;3138;52.550;13.148;2024-02-04T01:30:21;27.23;;;3.37;;
6209;SDS011;3138;52.550;13.148;2024-02-04T01:32:48;33.67;;;4.20;;
6209;SDS011;3138;52.550;13.148;2024-02-04T01:35:15;24.70;;;4.57;;
6209;SDS011;3138;52.550;13.148;2024-02-04T01:37:42;31.60;;;4.20;;
6209;SDS011;3138;52.550;13.148;2024-02-04T01:40:09;17.90;;;3.23;;
6209;SDS011;3138;52.550;13.148;2024-02-04T01:42:37;27.13;;;3.20;;
6209;SDS011;3138;52.550;13.148;2024-02-04T01:45:04;41.40;;;3.30;;
6209;SDS011;3138;52.550;13.148;2024-02-04T01:47:33;32.40;;;3.83;;
6209;SDS011;3138;52.550;13.148;2024-02-04T01:50:01;22.43;;;3.30;;
6209;SDS011;3138;52.550;13.148;2024-02-04T01:52:29;20.57;;;3.90;;
6209;SDS011;3138;52.550;13.148;2024-02-04T01:54:57;21.63;;;3.60;;
6209;SDS011;3138;52.550;13.148;2024-02-04T01:57:26;36.87;;;5.17;;
6209;SDS011;3138;52.550;13.148;2024-02-04T01:59:53;32.03;;;4.00;;
6209;SDS011;3138;52.550;13.148;2024-02-04T02:02:22;21.70;;;5.03;;
6209;SDS011;3138;52.550;13.148;2024-02-04T02:04:51;22.30;;;4.40;;
6209;SDS011;3138;52.550;13.148;2024-02-04T02:07:18;32.77;;;5.17;;
6209;SDS011;3138;52.550;13.148;2024-02-04T02:09:46;21.37;;;4.10;;
6209;SDS011;3138;52.550;13.148;2024-02-04T02:12:13;19.00;;;4.07;;
6209;SDS011;3138;52.550;13.148;2024-02-04T02:14:44;13.87;;;3.20;;
6209;SDS011;3138;52.550;13.148;2024-02-04T02:17:15;20.63;;;4.00;;
6209;SDS011;3138;52.550;13.148;2024-02-04T02:19:52;24.33;;;3.30;;
6209;SDS011;3138;52.550;13.148;2024-02-04T02:22:26;32.53;;;5.07;;
6209;SDS011;3138;52.550;13.148;2024-02-04T02:24:57;29.37;;;4.23;;
6209;SDS011;3138;52.550;13.148;2024-02-04T02:27:25;20.73;;;2.67;;
6209;SDS011;3138;52.550;13.148;2024-02-04T02:29:52;22.97;;;3.60;;
6209;SDS011;3138;52.550;13.148;2024-02-04T02:32:19;43.17;;;4.30;;
6209;SDS011;3138;52.550;13.148;2024-02-04T02:34:46;23.93;;;3.73;;
6209;SDS011;3138;52.550;13.148;2024-02-04T02:37:16;24.17;;;3.60;;
6209;SDS011;3138;52.550;13.148;2024-02-04T02:39:56;29.53;;;5.37;;
6209;SDS011;3138;52.550;13.148;2024-02-04T02:42:28;18.53;;;4.10;;
6209;SDS011;3138;52.550;13.148;2024-02-04T02:44:56;23.27;;;3.50;;
6209;SDS011;3138;52.550;13.148;2024-02-04T02:47:23;19.03;;;3.83;;
6209;SDS011;3138;52.550;13.148;2024-02-04T02:49:51;15.20;;;3.87;;
6209;SDS011;3138;52.550;13.148;2024-02-04T02:52:19;19.00;;;3.30;;
6209;SDS011;3138;52.550;13.148;2024-02-04T02:54:46;19.63;;;3.73;;
6209;SDS011;3138;52.550;13.148;2024-02-04T02:57:14;18.63;;;3.63;;
6209;SDS011;3138;52.550;13.148;2024-02-04T02:59:42;29.00;;;4.10;;
6209;SDS011;3138;52.550;13.148;2024-02-04T03:02:09;19.43;;;3.03;;
6209;SDS011;3138;52.550;13.148;2024-02-04T03:04:36;28.50;;;4.30;;
6209;SDS011;3138;52.550;13.148;2024-02-04T03:07:03;30.43;;;4.73;;
6209;SDS011;3138;52.550;13.148;2024-02-04T03:09:31;29.00;;;4.70;;
6209;SDS011;3138;52.550;13.148;2024-02-04T03:11:58;14.47;;;3.40;;
6209;SDS011;3138;52.550;13.148;2024-02-04T03:14:26;26.97;;;4.87;;
6209;SDS011;3138;52.550;13.148;2024-02-04T03:16:53;24.60;;;4.60;;
6209;SDS011;3138;52.550;13.148;2024-02-04T03:19:21;29.27;;;3.63;;
6209;SDS011;3138;52.550;13.148;2024-02-04T03:21:48;28.43;;;5.20;;
6209;SDS011;3138;52.550;13.148;2024-02-04T03:24:14;17.57;;;4.43;;
6209;SDS011;3138;52.550;13.148;2024-02-04T03:26:41;25.43;;;4.27;;
6209;SDS011;3138;52.550;13.148;2024-02-04T03:29:08;13.73;;;4.70;;
6209;SDS011;3138;52.550;13.148;2024-02-04T03:31:36;20.13;;;4.10;;
6209;SDS011;3138;52.550;13.148;2024-02-04T03:34:03;34.83;;;5.47;;
6209;SDS011;3138;52.550;13.148;2024-02-04T03:36:30;16.73;;;3.70;;
6209;SDS011;3138;52.550;13.148;2024-02-04T03:38:57;10.90;;;3.93;;
6209;SDS011;3138;52.550;13.148;2024-02-04T03:41:24;27.67;;;5.10;;
6209;SDS011;3138;52.550;13.148;2024-02-04T03:43:51;15.13;;;4.97;;
6209;SDS011;3138;52.550;13.148;2024-02-04T03:46:20;18.30;;;4.70;;
6209;SDS011;3138;52.550;13.148;2024-02-04T03:48:48;18.03;;;4.43;;
6209;SDS011;3138;52.550;13.148;2024-02-04T03:51:15;23.40;;;4.40;;
6209;SDS011;3138;52.550;13.148;2024-02-04T03:53:43;5.43;;;3.70;;
6209;SDS011;3138;52.550;13.148;2024-02-04T03:56:09;18.93;;;4.43;;
6209;SDS011;3138;52.550;13.148;2024-02-04T03:58:36;21.73;;;5.30;;
6209;SDS011;3138;52.550;13.148;2024-02-04T04:01:03;16.20;;;4.97;;
6209;SDS011;3138;52.550;13.148;2024-02-04T04:03:30;18.97;;;4.00;;
6209;SDS011;3138;52.550;13.148;2024-02-04T04:05:59;22.77;;;4.27;;
6209;SDS011;3138;52.550;13.148;2024-02-04T04:08:25;20.80;;;4.30;;
6209;SDS011;3138;52.550;13.148;2024-02-04T04:10:52;20.13;;;5.07;;
6209;SDS011;3138;52.550;13.148;2024-02-04T04:13:19;12.20;;;3.10;;
6209;SDS011;3138;52.550;13.148;2024-02-04T04:15:46;13.00;;;4.33;;
6209;SDS011;3138;52.550;13.148;2024-02-04T04:18:13;21.73;;;4.80;;
6209;SDS011;3138;52.550;13.148;2024-02-04T04:20:40;11.80;;;4.27;;
6209;SDS011;3138;52.550;13.148;2024-02-04T04:23:08;24.00;;;5.37;;
6209;SDS011;3138;52.550;13.148;2024-02-04T04:25:35;23.67;;;5.37;;
6209;SDS011;3138;52.550;13.148;2024-02-04T04:28:01;13.13;;;3.97;;
6209;SDS011;3138;52.550;13.148;2024-02-04T04:30:29;19.10;;;4.07;;
6209;SDS011;3138;52.550;13.148;2024-02-04T04:32:56;12.30;;;3.83;;
6209;SDS011;3138;52.550;13.148;2024-02-04T04:35:23;13.87;;;3.63;;
6209;SDS011;3138;52.550;13.148;2024-02-04T04:37:49;27.03;;;5.33;;
6209;SDS011;3138;52.550;13.148;2024-02-04T04:40:19;16.87;;;3.70;;
6209;SDS011;3138;52.550;13.148;2024-02-04T04:42:45;14.77;;;3.80;;
6209;SDS011;3138;52.550;13.148;2024-02-04T04:45:12;23.90;;;3.50;;
6209;SDS011;3138;52.550;13.148;2024-02-04T04:47:40;26.40;;;4.73;;
6209;SDS011;3138;52.550;13.148;2024-02-04T04:50:07;26.57;;;4.97;;
6209;SDS011;3138;52.550;13.148;2024-02-04T04:52:34;17.83;;;4.70;;
6209;SDS011;3138;52.550;13.148;2024-02-04T04:55:00;11.00;;;4.20;;
6209;SDS011;3138;52.550;13.148;2024-02-04T04:57:29;26.47;;;4.77;;
6209;SDS011;3138;52.550;13.148;2024-02-04T04:59:56;11.67;;;3.23;;
6209;SDS011;3138;52.550;13.148;2024-02-04T05:02:24;31.57;;;4.67;;
6209;SDS011;3138;52.550;13.148;2024-02-04T05:04:50;21.43;;;4.30;;
6209;SDS011;3138;52.550;13.148;2024-02-04T05:07:17;25.50;;;4.57;;
6209;SDS011;3138;52.550;13.148;2024-02-04T05:09:44;15.83;;;3.40;;
6209;SDS011;3138;52.550;13.148;2024-02-04T05:12:11;16.27;;;4.53;;
6209;SDS011;3138;52.550;13.148;2024-02-04T05:14:39;6.67;;;3.27;;
6209;SDS011;3138;52.550;13.148;2024-02-04T05:17:06;16.50;;;3.50;;
6209;SDS011;3138;52.550;13.148;2024-02-04T05:19:34;19.10;;;4.70;;
6209;SDS011;3138;52.550;13.148;2024-02-04T05:22:01;9.53;;;3.43;;
6209;SDS011;3138;52.550;13.148;2024-02-04T05:24:29;14.70;;;4.17;;
6209;SDS011;3138;52.550;13.148;2024-02-04T05:26:54;22.00;;;3.40;;
6209;SDS011;3138;52.550;13.148;2024-02-04T05:29:21;10.23;;;3.60;;
6209;SDS011;3138;52.550;13.148;2024-02-04T05:31:49;26.70;;;3.17;;
6209;SDS011;3138;52.550;13.148;2024-02-04T05:34:16;16.87;;;3.13;;
6209;SDS011;3138;52.550;13.148;2024-02-04T05:36:43;17.70;;;3.57;;
6209;SDS011;3138;52.550;13.148;2024-02-04T05:39:10;16.93;;;3.80;;
6209;SDS011;3138;52.550;13.148;2024-02-04T05:41:38;11.30;;;6.00;;
6209;SDS011;3138;52.550;13.148;2024-02-04T05:44:05;26.47;;;5.70;;
6209;SDS011;3138;52.550;13.148;2024-02-04T05:46:33;24.40;;;4.70;;
6209;SDS011;3138;52.550;13.148;2024-02-04T05:49:02;37.07;;;5.93;;
6209;SDS011;3138;52.550;13.148;2024-02-04T05:51:31;22.03;;;5.50;;
6209;SDS011;3138;52.550;13.148;2024-02-04T05:53:58;32.63;;;7.40;;
6209;SDS011;3138;52.550;13.148;2024-02-04T05:56:25;15.97;;;4.63;;
6209;SDS011;3138;52.550;13.148;2024-02-04T05:58:52;12.00;;;4.10;;
6209;SDS011;3138;52.550;13.148;2024-02-04T06:01:19;16.47;;;4.47;;
6209;SDS011;3138;52.550;13.148;2024-02-04T06:03:45;16.80;;;3.83;;
6209;SDS011;3138;52.550;13.148;2024-02-04T06:06:15;15.33;;;4.30;;
6209;SDS011;3138;52.550;13.148;2024-02-04T06:08:44;23.57;;;3.93;;
6209;SDS011;3138;52.550;13.148;2024-02-04T06:11:11;7.67;;;3.87;;
6209;SDS011;3138;52.550;13.148;2024-02-04T06:13:39;10.97;;;4.00;;
6209;SDS011;3138;52.550;13.148;2024-02-04T06:16:07;21.37;;;4.30;;
6209;SDS011;3138;52.550;13.148;2024-02-04T06:18:35;12.23;;;4.40;;
6209;SDS011;3138;52.550;13.148;2024-02-04T06:21:02;11.13;;;3.97;;
6209;SDS011;3138;52.550;13.148;2024-02-04T06:23:31;27.00;;;4.67;;
6209;SDS011;3138;52.550;13.148;2024-02-04T06:25:58;20.23;;;5.33;;
6209;SDS011;3138;52.550;13.148;2024-02-04T06:28:26;13.33;;;3.93;;
6209;SDS011;3138;52.550;13.148;2024-02-04T06:30:53;25.50;;;6.00;;
6209;SDS011;3138;52.550;13.148;2024-02-04T06:33:19;21.50;;;5.37;;
6209;SDS011;3138;52.550;13.148;2024-02-04T06:35:47;15.60;;;5.33;;
6209;SDS011;3138;52.550;13.148;2024-02-04T06:38:14;21.50;;;5.53;;
6209;SDS011;3138;52.550;13.148;2024-02-04T06:40:42;17.70;;;6.10;;
6209;SDS011;3138;52.550;13.148;2024-02-04T06:43:09;19.70;;;6.40;;
6209;SDS011;3138;52.550;13.148;2024-02-04T06:45:36;16.70;;;6.40;;
6209;SDS011;3138;52.550;13.148;2024-02-04T06:48:03;18.63;;;6.63;;
6209;SDS011;3138;52.550;13.148;2024-02-04T06:50:30;24.73;;;6.80;;
6209;SDS011;3138;52.550;13.148;2024-02-04T06:52:57;25.83;;;7.77;;
6209;SDS011;3138;52.550;13.148;2024-02-04T06:55:24;18.93;;;7.17;;
6209;SDS011;3138;52.550;13.148;2024-02-04T06:57:52;13.03;;;6.57;;
6209;SDS011;3138;52.550;13.148;2024-02-04T07:00:19;18.83;;;8.20;;
6209;SDS011;3138;52.550;13.148;2024-02-04T07:02:46;16.53;;;7.50;;
6209;SDS011;3138;52.550;13.148;2024-02-04T07:05:13;19.83;;;8.40;;
6209;SDS011;3138;52.550;13.148;2024-02-04T07:07:40;15.70;;;7.47;;
6209;SDS011;3138;52.550;13.148;2024-02-04T07:10:08;32.37;;;8.80;;
6209;SDS011;3138;52.550;13.148;2024-02-04T07:12:34;18.13;;;8.30;;
6209;SDS011;3138;52.550;13.148;2024-02-04T07:15:02;29.43;;;8.10;;
6209;SDS011;3138;52.550;13.148;2024-02-04T07:17:29;18.43;;;8.20;;
6209;SDS011;3138;52.550;13.148;2024-02-04T07:19:56;21.47;;;8.30;;
6209;SDS011;3138;52.550;13.148;2024-02-04T07:22:23;21.77;;;9.37;;
6209;SDS011;3138;52.550;13.148;2024-02-04T07:24:50;19.37;;;9.00;;
6209;SDS011;3138;52.550;13.148;2024-02-04T07:27:17;22.23;;;8.73;;
6209;SDS011;3138;52.550;13.148;2024-02-04T07:29:44;17.87;;;7.73;;
6209;SDS011;3138;52.550;13.148;2024-02-04T07:32:13;19.10;;;8.83;;
6209;SDS011;3138;52.550;13.148;2024-02-04T07:34:40;22.43;;;8.33;;
6209;SDS011;3138;52.550;13.148;2024-02-04T07:37:07;27.83;;;9.23;;
6209;SDS011;3138;52.550;13.148;2024-02-04T07:39:34;43.90;;;8.80;;
6209;SDS011;3138;52.550;13.148;2024-02-04T07:42:01;24.27;;;6.70;;
6209;SDS011;3138;52.550;13.148;2024-02-04T07:44:28;27.60;;;8.93;;
6209;SDS011;3138;52.550;13.148;2024-02-04T07:46:55;32.17;;;8.63;;
6209;SDS011;3138;52.550;13.148;2024-02-04T07:49:23;24.33;;;8.07;;
6209;SDS011;3138;52.550;13.148;2024-02-04T07:51:50;25.40;;;9.33;;
6209;SDS011;3138;52.550;13.148;2024-02-04T07:54:17;26.20;;;8.80;;
6209;SDS011;3138;52.550;13.148;2024-02-04T07:56:44;20.17;;;8.40;;
6209;SDS011;3138;52.550;13.148;2024-02-04T07:59:11;19.03;;;8.10;;
6209;SDS011;3138;52.550;13.148;2024-02-04T08:01:37;19.97;;;7.20;;
6209;SDS011;3138;52.550;13.148;2024-02-04T08:04:04;21.40;;;8.17;;
6209;SDS011;3138;52.550;13.148;2024-02-04T08:06:35;15.30;;;7.33;;
6209;SDS011;3138;52.550;13.148;2024-02-04T08:09:02;25.23;;;8.80;;
6209;SDS011;3138;52.550;13.148;2024-02-04T08:11:29;22.33;;;7.20;;
6209;SDS011;3138;52.550;13.148;2024-02-04T08:13:56;10.77;;;6.03;;
6209;SDS011;3138;52.550;13.148;2024-02-04T08:16:23;38.70;;;6.70;;
6209;SDS011;3138;52.550;13.148;2024-02-04T08:18:50;25.47;;;6.47;;
6209;SDS011;3138;52.550;13.148;2024-02-04T08:21:16;19.57;;;6.30;;
6209;SDS011;3138;52.550;13.148;2024-02-04T08:23:45;10.97;;;5.17;;
6209;SDS011;3138;52.550;13.148;2024-02-04T08:26:11;16.43;;;6.23;;
6209;SDS011;3138;52.550;13.148;2024-02-04T08:28:39;15.77;;;6.00;;
6209;SDS011;3138;52.550;13.148;2024-02-04T08:31:05;24.30;;;6.60;;
6209;SDS011;3138;52.550;13.148;2024-02-04T08:33:32;17.67;;;4.97;;
6209;SDS011;3138;52.550;13.148;2024-02-04T08:35:59;20.20;;;5.70;;
6209;SDS011;3138;52.550;13.148;2024-02-04T08:38:26;19.73;;;5.20;;
6209;SDS011;3138;52.550;13.148;2024-02-04T08:40:54;35.50;;;5.50;;
6209;SDS011;3138;52.550;13.148;2024-02-04T08:43:21;13.13;;;4.50;;
6209;SDS011;3138;52.550;13.148;2024-02-04T08:45:48;22.20;;;5.20;;
6209;SDS011;3138;52.550;13.148;2024-02-04T08:48:14;16.73;;;5.20;;
6209;SDS011;3138;52.550;13.148;2024-02-04T08:50:41;14.70;;;3.67;;
6209;SDS011;3138;52.550;13.148;2024-02-04T08:53:08;10.73;;;4.80;;
6209;SDS011;3138;52.550;13.148;2024-02-04T08:55:35;17.07;;;4.33;;
6209;SDS011;3138;52.550;13.148;2024-02-04T08:58:02;23.00;;;5.23;;
6209;SDS011;3138;52.550;13.148;2024-02-04T09:00:29;11.87;;;3.60;;
6209;SDS011;3138;52.550;13.148;2024-02-04T09:02:56;20.63;;;5.23;;
6209;SDS011;3138;52.550;13.148;2024-02-04T09:05:22;21.83;;;4.40;;
6209;SDS011;3138;52.550;13.148;2024-02-04T09:07:49;15.70;;;4.33;;
6209;SDS011;3138;52.550;13.148;2024-02-04T09:10:16;21.60;;;4.60;;
6209;SDS011;3138;52.550;13.148;2024-02-04T09:12:43;18.13;;;3.40;;
6209;SDS011;3138;52.550;13.148;2024-02-04T09:15:11;11.20;;;3.60;;
6209;SDS011;3138;52.550;13.148;2024-02-04T09:17:38;28.83;;;4.80;;
6209;SDS011;3138;52.550;13.148;2024-02-04T09:20:06;19.83;;;4.80;;
6209;SDS011;3138;52.550;13.148;2024-02-04T09:22:33;29.30;;;4.20;;
6209;SDS011;3138;52.550;13.148;2024-02-04T09:25:00;20.47;;;5.30;;
6209;SDS011;3138;52.550;13.148;2024-02-04T09:27:27;19.73;;;4.20;;
6209;SDS011;3138;52.550;13.148;2024-02-04T09:29:54;25.73;;;3.60;;
6209;SDS011;3138;52.550;13.148;2024-02-04T09:32:22;17.73;;;4.47;;
6209;SDS011;3138;52.550;13.148;2024-02-04T09:34:49;17.53;;;3.27;;
6209;SDS011;3138;52.550;13.148;2024-02-04T09:37:16;13.77;;;2.50;;
6209;SDS011;3138;52.550;13.148;2024-02-04T09:39:43;28.90;;;3.80;;
6209;SDS011;3138;52.550;13.148;2024-02-04T09:42:10;22.50;;;3.23;;
6209;SDS011;3138;52.550;13.148;2024-02-04T09:44:44;17.10;;;3.20;;
6209;SDS011;3138;52.550;13.148;2024-02-04T09:47:12;18.30;;;3.40;;
6209;SDS011;3138;52.550;13.148;2024-02-04T09:49:41;13.50;;;3.10;;
6209;SDS011;3138;52.550;13.148;2024-02-04T09:52:08;19.83;;;3.27;;
6209;SDS011;3138;52.550;13.148;2024-02-04T09:54:38;35.57;;;3.57;;
6209;SDS011;3138;52.550;13.148;2024-02-04T09:57:10;14.83;;;3.00;;
6209;SDS011;3138;52.550;13.148;2024-02-04T09:59:37;15.33;;;2.30;;
6209;SDS011;3138;52.550;13.148;2024-02-04T10:02:04;18.70;;;2.80;;
6209;SDS011;3138;52.550;13.148;2024-02-04T10:04:32;32.80;;;3.80;;
6209;SDS011;3138;52.550;13.148;2024-02-04T10:07:00;18.77;;;2.20;;
6209;SDS011;3138;52.550;13.148;2024-02-04T10:09:28;18.60;;;2.80;;
6209;SDS011;3138;52.550;13.148;2024-02-04T10:11:56;5.73;;;2.50;;
6209;SDS011;3138;52.550;13.148;2024-02-04T10:14:23;11.13;;;1.63;;
6209;SDS011;3138;52.550;13.148;2024-02-04T10:16:50;4.00;;;1.50;;
6209;SDS011;3138;52.550;13.148;2024-02-04T10:19:17;10.20;;;2.40;;
6209;SDS011;3138;52.550;13.148;2024-02-04T10:21:44;7.07;;;1.97;;
6209;SDS011;3138;52.550;13.148;2024-02-04T10:24:12;21.03;;;2.40;;
6209;SDS011;3138;52.550;13.148;2024-02-04T10:26:39;9.20;;;1.73;;
6209;SDS011;3138;52.550;13.148;2024-02-04T10:29:08;12.73;;;1.80;;
6209;SDS011;3138;52.550;13.148;2024-02-04T10:31:35;12.37;;;2.00;;
6209;SDS011;3138;52.550;13.148;2024-02-04T10:34:02;13.83;;;2.70;;
6209;SDS011;3138;52.550;13.148;2024-02-04T10:36:30;13.33;;;1.83;;
6209;SDS011;3138;52.550;13.148;2024-02-04T10:38:57;11.07;;;1.80;;
6209;SDS011;3138;52.550;13.148;2024-02-04T10:41:25;5.53;;;2.13;;
6209;SDS011;3138;52.550;13.148;2024-02-04T10:43:56;9.30;;;1.63;;
6209;SDS011;3138;52.550;13.148;2024-02-04T10:46:25;16.03;;;2.13;;
6209;SDS011;3138;52.550;13.148;2024-02-04T10:48:56;7.87;;;2.40;;
6209;SDS011;3138;52.550;13.148;2024-02-04T10:51:27;12.60;;;2.17;;
6209;SDS011;3138;52.550;13.148;2024-02-04T10:53:56;11.53;;;1.97;;
6209;SDS011;3138;52.550;13.148;2024-02-04T10:56:29;14.43;;;1.63;;
6209;SDS011;3138;52.550;13.148;2024-02-04T10:58:56;12.10;;;2.03;;
6209;SDS011;3138;52.550;13.148;2024-02-04T11:01:25;6.20;;;1.53;;
6209;SDS011;3138;52.550;13.148;2024-02-04T11:03:52;15.43;;;2.83;;
6209;SDS011;3138;52.550;13.148;2024-02-04T11:06:20;17.10;;;2.67;;
6209;SDS011;3138;52.550;13.148;2024-02-04T11:08:49;8.50;;;2.37;;
6209;SDS011;3138;52.550;13.148;2024-02-04T11:11:18;8.70;;;2.07;;
6209;SDS011;3138;52.550;13.148;2024-02-04T11:13:48;13.23;;;3.10;;
6209;SDS011;3138;52.550;13.148;2024-02-04T11:16:21;9.70;;;2.30;;
6209;SDS011;3138;52.550;13.148;2024-02-04T11:19:00;2.53;;;1.20;;
6209;SDS011;3138;52.550;13.148;2024-02-04T11:24:48;7.77;;;2.57;;
6209;SDS011;3138;52.550;13.148;2024-02-04T11:27:29;10.83;;;1.80;;
6209;SDS011;3138;52.550;13.148;2024-02-04T11:29:58;11.53;;;2.50;;
6209;SDS011;3138;52.550;13.148;2024-02-04T11:32:25;11.73;;;2.50;;
6209;SDS011;3138;52.550;13.148;2024-02-04T11:34:52;14.40;;;2.47;;
6209;SDS011;3138;52.550;13.148;2024-02-04T11:37:20;12.40;;;1.67;;
6209;SDS011;3138;52.550;13.148;2024-02-04T11:39:49;10.53;;;2.30;;
6209;SDS011;3138;52.550;13.148;2024-02-04T11:42:16;7.77;;;2.27;;
6209;SDS011;3138;52.550;13.148;2024-02-04T11:44:43;11.57;;;2.40;;
6209;SDS011;3138;52.550;13.148;2024-02-04T11:47:22;6.73;;;2.00;;
6209;SDS011;3138;52.550;13.148;2024-02-04T11:49:53;11.00;;;2.50;;
6209;SDS011;3138;52.550;13.148;2024-02-04T11:52:20;11.77;;;2.20;;
6209;SDS011;3138;52.550;13.148;2024-02-04T11:54:47;9.07;;;2.67;;
6209;SDS011;3138;52.550;13.148;2024-02-04T11:57:14;15.03;;;2.47;;
6209;SDS011;3138;52.550;13.148;2024-02-04T11:59:42;9.67;;;1.83;;
6209;SDS011;3138;52.550;13.148;2024-02-04T12:02:09;14.13;;;2.20;;
6209;SDS011;3138;52.550;13.148;2024-02-04T12:04:39;18.53;;;2.30;;
6209;SDS011;3138;52.550;13.148;2024-02-04T12:07:06;5.20;;;1.60;;
6209;SDS011;3138;52.550;13.148;2024-02-04T12:09:34;15.23;;;2.50;;
6209;SDS011;3138;52.550;13.148;2024-02-04T12:12:02;9.73;;;2.33;;
6209;SDS011;3138;52.550;13.148;2024-02-04T12:14:30;11.37;;;3.33;;
6209;SDS011;3138;52.550;13.148;2024-02-04T12:16:57;15.53;;;2.63;;
6209;SDS011;3138;52.550;13.148;2024-02-04T12:19:24;7.33;;;2.10;;
6209;SDS011;3138;52.550;13.148;2024-02-04T12:21:53;18.50;;;2.33;;
6209;SDS011;3138;52.550;13.148;2024-02-04T12:24:21;18.60;;;2.60;;
6209;SDS011;3138;52.550;13.148;2024-02-04T12:26:48;13.00;;;1.97;;
6209;SDS011;3138;52.550;13.148;2024-02-04T12:29:15;5.90;;;1.60;;
6209;SDS011;3138;52.550;13.148;2024-02-04T12:31:42;20.07;;;3.17;;
6209;SDS011;3138;52.550;13.148;2024-02-04T12:34:10;12.23;;;2.33;;
6209;SDS011;3138;52.550;13.148;2024-02-04T12:36:39;6.27;;;1.90;;
6209;SDS011;3138;52.550;13.148;2024-02-04T12:39:07;11.13;;;2.97;;
6209;SDS011;3138;52.550;13.148;2024-02-04T12:41:37;9.60;;;1.33;;
6209;SDS011;3138;52.550;13.148;2024-02-04T12:44:04;7.20;;;2.33;;
6209;SDS011;3138;52.550;13.148;2024-02-04T12:46:31;9.93;;;1.87;;
6209;SDS011;3138;52.550;13.148;2024-02-04T12:48:58;6.90;;;2.20;;
6209;SDS011;3138;52.550;13.148;2024-02-04T12:51:25;8.10;;;1.63;;
6209;SDS011;3138;52.550;13.148;2024-02-04T12:54:02;25.67;;;3.00;;
6209;SDS011;3138;52.550;13.148;2024-02-04T12:56:40;10.27;;;1.40;;
6209;SDS011;3138;52.550;13.148;2024-02-04T12:59:11;11.13;;;1.83;;
6209;SDS011;3138;52.550;13.148;2024-02-04T13:01:51;13.30;;;2.20;;
6209;SDS011;3138;52.550;13.148;2024-02-04T13:04:19;10.23;;;2.00;;
6209;SDS011;3138;52.550;13.148;2024-02-04T13:06:46;13.53;;;2.33;;
6209;SDS011;3138;52.550;13.148;2024-02-04T13:09:13;6.50;;;2.57;;
6209;SDS011;3138;52.550;13.148;2024-02-04T13:11:42;10.43;;;2.10;;
6209;SDS011;3138;52.550;13.148;2024-02-04T13:14:09;15.60;;;2.90;;
6209;SDS011;3138;52.550;13.148;2024-02-04T13:16:37;16.50;;;3.27;;
6209;SDS011;3138;52.550;13.148;2024-02-04T13:19:04;21.17;;;3.00;;
6209;SDS011;3138;52.550;13.148;2024-02-04T13:21:32;17.80;;;2.23;;
6209;SDS011;3138;52.550;13.148;2024-02-04T13:23:59;12.53;;;2.10;;
6209;SDS011;3138;52.550;13.148;2024-02-04T13:26:26;9.10;;;1.80;;
6209;SDS011;3138;52.550;13.148;2024-02-04T13:28:54;8.10;;;2.40;;
6209;SDS011;3138;52.550;13.148;2024-02-04T13:31:21;14.43;;;2.30;;
6209;SDS011;3138;52.550;13.148;2024-02-04T13:33:48;17.57;;;2.37;;
6209;SDS011;3138;52.550;13.148;2024-02-04T13:36:15;9.40;;;2.20;;
6209;SDS011;3138;52.550;13.148;2024-02-04T13:38:42;16.33;;;3.00;;
6209;SDS011;3138;52.550;13.148;2024-02-04T13:41:09;8.90;;;2.03;;
6209;SDS011;3138;52.550;13.148;2024-02-04T13:43:36;17.20;;;2.80;;
6209;SDS011;3138;52.550;13.148;2024-02-04T13:46:04;11.30;;;2.17;;
6209;SDS011;3138;52.550;13.148;2024-02-04T13:48:31;12.13;;;2.97;;
6209;SDS011;3138;52.550;13.148;2024-02-04T13:50:58;9.00;;;2.53;;
6209;SDS011;3138;52.550;13.148;2024-02-04T13:53:25;14.60;;;2.83;;
6209;SDS011;3138;52.550;13.148;2024-02-04T13:55:52;9.10;;;2.53;;
6209;SDS011;3138;52.550;13.148;2024-02-04T13:58:19;9.13;;;2.07;;
6209;SDS011;3138;52.550;13.148;2024-02-04T14:00:48;5.60;;;2.63;;
6209;SDS011;3138;52.550;13.148;2024-02-04T14:03:16;5.20;;;2.33;;
6209;SDS011;3138;52.550;13.148;2024-02-04T14:05:43;24.93;;;3.20;;
6209;SDS011;3138;52.550;13.148;2024-02-04T14:08:10;13.53;;;2.97;;
6209;SDS011;3138;52.550;13.148;2024-02-04T14:10:37;17.97;;;2.87;;
6209;SDS011;3138;52.550;13.148;2024-02-04T14:13:04;15.50;;;3.40;;
6209;SDS011;3138;52.550;13.148;2024-02-04T14:15:31;5.33;;;2.77;;
6209;SDS011;3138;52.550;13.148;2024-02-04T14:17:58;10.27;;;2.40;;
6209;SDS011;3138;52.550;13.148;2024-02-04T14:20:27;10.23;;;2.00;;
6209;SDS011;3138;52.550;13.148;2024-02-04T14:22:53;10.67;;;2.27;;
6209;SDS011;3138;52.550;13.148;2024-02-04T14:25:21;14.93;;;2.77;;
6209;SDS011;3138;52.550;13.148;2024-02-04T14:27:49;15.17;;;3.00;;
6209;SDS011;3138;52.550;13.148;2024-02-04T14:30:16;18.17;;;2.07;;
6209;SDS011;3138;52.550;13.148;2024-02-04T14:32:43;11.20;;;3.20;;
6209;SDS011;3138;52.550;13.148;2024-02-04T14:35:10;14.43;;;2.57;;
6209;SDS011;3138;52.550;13.148;2024-02-04T14:37:38;6.50;;;2.27;;
6209;SDS011;3138;52.550;13.148;2024-02-04T14:40:05;6.00;;;2.10;;
6209;SDS011;3138;52.550;13.148;2024-02-04T14:42:33;16.37;;;2.70;;
6209;SDS011;3138;52.550;13.148;2024-02-04T14:45:00;14.43;;;2.83;;
6209;SDS011;3138;52.550;13.148;2024-02-04T14:47:27;4.60;;;2.40;;
6209;SDS011;3138;52.550;13.148;2024-02-04T14:49:54;16.03;;;3.10;;
6209;SDS011;3138;52.550;13.148;2024-02-04T14:52:22;7.10;;;2.10;;
6209;SDS011;3138;52.550;13.148;2024-02-04T14:54:50;12.47;;;2.83;;
6209;SDS011;3138;52.550;13.148;2024-02-04T14:57:17;15.23;;;3.20;;